Time;durP1;ratioP1;P1;durP2;ratioP2;P2;SDS_P1;SDS_P2;PMS_P1;PMS_P2;Temp;Humidity;BMP_temperature;BMP_pressure;BME280_temperature;BME280_humidity;BME280_pressure;Samples;Min_cycle;Max_cycle;Signal;HPM_P1;HPM_P2
2022/02/11 00:07:07;;;;;;;3.13;1.20;;;;;;;2.31;71.08;98772.88;5064201;28;20376;-59
2022/02/11 00:09:32;;;;;;;4.82;1.67;;;;;;;2.33;70.73;98764.34;5051757;28;20033;-59
2022/02/11 00:11:58;;;;;;;3.28;1.27;;;;;;;2.29;70.19;98769.47;5065257;28;20025;-59
2022/02/11 00:14:25;;;;;;;4.72;1.42;;;;;;;2.28;70.14;98768.66;5065189;28;20028;-58
2022/02/11 00:16:51;;;;;;;5.72;1.85;;;;;;;2.30;70.46;98771.19;5065332;28;20036;-59
2022/02/11 00:19:16;;;;;;;3.38;1.50;;;;;;;2.14;69.91;98750.78;5064940;28;20043;-58
2022/02/11 00:21:42;;;;;;;8.68;1.92;;;;;;;2.25;70.87;98771.19;5064878;28;20021;-58
2022/02/11 00:24:08;;;;;;;5.03;1.40;;;;;;;2.14;69.59;98766.13;5065095;28;20036;-58
2022/02/11 00:26:37;;;;;;;7.07;1.50;;;;;;;2.30;69.99;98773.75;5064873;28;20024;-58
2022/02/11 00:32:23;;;;;;;4.47;1.42;;;;;;;2.23;70.61;98771.19;5064922;28;20026;-60
2022/02/11 00:34:46;;;;;;;5.95;1.92;;;;;;;2.29;70.09;98779.69;5063381;28;20040;-59
2022/02/11 00:37:17;;;;;;;4.32;1.60;;;;;;;2.30;69.80;98774.59;5064633;28;20031;-59
2022/02/11 00:40:12;;;;;;;;;;;;;;;2.15;69.07;98772.94;5065340;28;20229;-59
2022/02/11 01:04:33;;;;;;;3.88;1.42;;;;;;;2.39;68.88;98760.94;5060260;28;20044;-59
2022/02/11 01:06:58;;;;;;;3.33;1.40;;;;;;;2.44;68.38;98764.31;5064034;28;20012;-59
2022/02/11 01:09:24;;;;;;;3.65;1.92;;;;;;;2.42;69.29;98773.69;5054175;28;20035;-59
2022/02/11 01:11:52;;;;;;;4.82;1.58;;;;;;;2.41;68.97;98766.91;5064082;28;20021;-59
2022/02/11 01:14:22;;;;;;;5.10;1.60;;;;;;;2.40;68.92;98771.13;5063877;28;20059;-59
2022/02/11 01:16:53;;;;;;;6.20;1.65;;;;;;;2.44;68.99;98768.56;5064137;28;20036;-58
2022/02/11 01:21:57;;;;;;;6.15;1.40;;;;;;;2.50;69.62;98758.34;5063834;28;20333;-59
2022/02/11 01:30:12;;;;;;;7.75;1.75;;;;;;;2.32;68.06;98762.63;5063075;28;20033;-59
2022/02/11 01:33:11;;;;;;;4.10;1.60;;;;;;;2.34;68.65;98760.94;5063664;28;20032;-59
2022/02/11 01:57:17;;;;;;;4.22;1.60;;;;;;;2.23;67.45;98750.75;5061156;28;20028;-60
2022/02/11 02:32:14;;;;;;;4.88;1.50;;;;;;;2.17;69.14;98734.63;5056507;28;20365;-60
2022/02/11 02:43:20;;;;;;;;;;;;;;;2.05;69.65;98726.13;5061783;28;20033;-60
2022/02/11 02:50:36;;;;;;;12.40;1.80;;;;;;;1.69;69.66;98658.13;5062349;28;20044;-60
2022/02/11 02:58:39;;;;;;;5.55;1.50;;;;;;;1.96;69.96;98722.75;5061681;28;20039;-59
2022/02/11 03:15:07;;;;;;;4.78;1.55;;;;;;;1.99;69.81;98709.97;5064581;28;20040;-60
2022/02/11 03:50:19;;;;;;;7.10;1.80;;;;;;;2.03;69.72;98704.00;5063448;28;20037;-59
2022/02/11 03:59:14;;;;;;;3.83;1.60;;;;;;;1.93;70.29;98703.19;5046889;28;20060;-60
2022/02/11 04:20:56;;;;;;;5.93;1.65;;;;;;;2.07;69.90;98706.53;5063906;28;20063;-60
2022/02/11 04:56:05;;;;;;;5.05;1.95;;;;;;;2.08;70.31;98717.59;5063985;28;20059;-58
2022/02/11 05:01:18;;;;;;;5.55;1.95;;;;;;;2.07;70.22;98721.03;5063833;28;20055;-59
2022/02/11 05:03:43;;;;;;;5.10;1.63;;;;;;;1.97;70.38;98717.63;5064086;28;20052;-61
2022/02/11 05:06:09;;;;;;;9.10;1.70;;;;;;;1.97;69.96;98729.56;5064070;28;20302;-61
2022/02/11 05:08:35;;;;;;;9.80;2.30;;;;;;;2.03;70.23;98722.72;5063248;28;20096;-60
2022/02/11 05:11:03;;;;;;;5.18;1.80;;;;;;;2.10;71.68;98732.94;5063351;28;20025;-55
2022/02/11 05:13:29;;;;;;;6.82;3.25;;;;;;;2.09;70.96;98734.63;5064184;28;20226;-56
2022/02/11 05:15:54;;;;;;;7.15;2.28;;;;;;;2.12;69.59;98736.31;5063810;28;20020;-57
2022/02/11 05:18:20;;;;;;;7.47;1.98;;;;;;;2.10;70.71;98730.38;5063801;28;20033;-57
2022/02/11 05:20:46;;;;;;;6.82;1.77;;;;;;;2.20;70.69;98739.72;5063832;28;20225;-58
2022/02/11 05:23:14;;;;;;;5.07;1.83;;;;;;;2.01;70.23;98732.09;5062901;28;20025;-56
2022/02/11 05:25:41;;;;;;;9.23;2.00;;;;;;;1.99;70.62;98726.13;5062356;28;20025;-56
2022/02/11 05:28:08;;;;;;;9.85;2.25;;;;;;;2.15;70.09;98749.06;5062565;28;20075;-57
2022/02/11 05:30:36;;;;;;;5.43;1.80;;;;;;;2.12;71.12;98739.72;5062420;28;20020;-57
2022/02/11 05:33:02;;;;;;;8.02;1.98;;;;;;;2.12;71.36;98742.28;5062150;28;20040;-56
2022/02/11 05:35:28;;;;;;;4.38;1.65;;;;;;;2.14;70.33;98748.25;5062561;28;20051;-57
2022/02/11 05:37:54;;;;;;;9.45;2.17;;;;;;;2.09;71.66;98739.72;5063285;28;20033;-57
2022/02/11 05:40:19;;;;;;;6.20;2.10;;;;;;;2.14;70.91;98745.69;5063383;28;20035;-56
2022/02/11 05:42:45;;;;;;;5.47;1.88;;;;;;;2.00;70.40;98745.72;5063048;28;20025;-57
2022/02/11 05:45:11;;;;;;;8.05;2.15;;;;;;;2.01;71.63;98746.56;5063170;28;20321;-57
2022/02/11 05:47:36;;;;;;;6.75;2.05;;;;;;;2.20;71.11;98749.94;5063225;28;20309;-57
2022/02/11 05:50:03;;;;;;;7.15;2.05;;;;;;;2.15;70.84;98749.06;5061906;28;20028;-57
2022/02/11 05:52:33;;;;;;;5.93;2.13;;;;;;;2.09;71.28;98757.59;5063148;28;20029;-57
2022/02/11 05:54:59;;;;;;;9.25;2.38;;;;;;;2.07;70.79;98752.50;5062839;28;20340;-57
2022/02/11 05:57:26;;;;;;;5.35;2.22;;;;;;;2.12;71.13;98751.66;5062948;28;20021;-57
2022/02/11 05:59:51;;;;;;;6.55;1.63;;;;;;;1.74;71.05;98689.63;5061820;28;20032;-56
2022/02/11 06:02:17;;;;;;;5.78;1.88;;;;;;;1.89;70.82;98707.44;5063145;28;20048;-57
2022/02/11 06:04:43;;;;;;;6.07;2.38;;;;;;;2.08;71.15;98735.47;5063238;28;20367;-56
2022/02/11 06:07:08;;;;;;;5.70;2.00;;;;;;;2.23;71.53;98737.97;5063029;28;20029;-57
2022/02/11 06:09:34;;;;;;;10.27;2.92;;;;;;;2.22;71.29;98738.84;5059933;28;20025;-58
2022/02/11 06:11:59;;;;;;;8.02;2.50;;;;;;;2.26;70.54;98744.78;5062780;28;20310;-58
2022/02/11 06:14:25;;;;;;;6.47;2.10;;;;;;;2.12;71.18;98741.44;5062844;28;20060;-56
2022/02/11 06:16:51;;;;;;;6.55;2.20;;;;;;;2.12;71.22;98738.88;5062862;28;20027;-57
2022/02/11 06:19:16;;;;;;;6.00;2.60;;;;;;;2.21;72.07;98746.53;5062891;28;20041;-57
2022/02/11 06:21:42;;;;;;;4.28;1.90;;;;;;;2.20;70.43;98739.72;5062467;28;20059;-57
2022/02/11 06:24:08;;;;;;;9.90;2.38;;;;;;;2.24;70.79;98754.19;5062839;28;20116;-57
2022/02/11 06:26:33;;;;;;;9.02;2.35;;;;;;;2.20;71.49;98742.25;5062944;28;20611;-57
2022/02/11 06:28:59;;;;;;;11.35;2.22;;;;;;;2.18;71.51;98743.97;5062639;28;20028;-57
2022/02/11 06:31:25;;;;;;;10.32;2.65;;;;;;;2.28;70.78;98757.56;5062551;28;20063;-56
2022/02/11 06:33:52;;;;;;;5.63;2.25;;;;;;;2.24;71.26;98759.28;5064508;28;20032;-57
2022/02/11 06:36:17;;;;;;;8.52;2.30;;;;;;;2.17;71.11;98743.13;5067869;28;20051;-57
2022/02/11 06:38:43;;;;;;;8.45;2.40;;;;;;;2.19;71.26;98754.16;5061994;28;20024;-56
2022/02/11 06:41:08;;;;;;;9.93;2.53;;;;;;;2.19;71.29;98751.63;5062509;28;20270;-57
2022/02/11 06:43:34;;;;;;;7.15;2.47;;;;;;;2.34;70.97;98752.44;5065561;28;20222;-58
2022/02/11 06:46:03;;;;;;;4.93;2.33;;;;;;;2.35;71.93;98747.31;5066523;28;20025;-58
2022/02/11 06:48:29;;;;;;;8.35;2.35;;;;;;;2.41;71.56;98746.47;5066715;28;20025;-57
2022/02/11 06:50:55;;;;;;;7.50;2.30;;;;;;;2.23;70.54;98750.75;5066332;28;20044;-57
2022/02/11 06:53:21;;;;;;;7.93;2.47;;;;;;;2.38;70.33;98749.88;5080341;28;20099;-58
2022/02/11 06:55:47;;;;;;;8.65;2.05;;;;;;;2.27;70.45;98740.53;5066859;28;20048;-58
2022/02/11 06:58:14;;;;;;;6.22;2.08;;;;;;;2.32;71.21;98739.66;5065206;28;20096;-57
2022/02/11 07:00:43;;;;;;;7.38;2.55;;;;;;;2.35;71.46;98751.56;5065984;28;20303;-60
2022/02/11 07:03:10;;;;;;;8.00;2.70;;;;;;;2.38;71.17;98746.44;5066326;28;20035;-58
2022/02/11 07:05:36;;;;;;;9.85;2.65;;;;;;;2.48;71.14;98748.13;5066262;28;20031;-57
2022/02/11 07:08:04;;;;;;;9.00;2.50;;;;;;;2.55;70.38;98744.69;5065838;28;20112;-57
2022/02/11 07:10:29;;;;;;;9.65;2.40;;;;;;;2.31;70.81;98744.78;5066179;28;20031;-58
2022/02/11 07:12:55;;;;;;;12.60;2.90;;;;;;;2.46;70.52;98743.88;5065693;28;20021;-57
2022/02/11 07:15:21;;;;;;;4.10;2.28;;;;;;;2.45;70.41;98745.56;5065872;28;20037;-58
2022/02/11 07:17:46;;;;;;;6.45;2.28;;;;;;;2.42;70.56;98731.13;5066252;28;20039;-57
2022/02/11 07:20:12;;;;;;;7.55;2.60;;;;;;;2.62;70.57;98748.06;5066265;28;20348;-57
2022/02/11 07:22:39;;;;;;;7.22;1.92;;;;;;;2.65;70.96;98749.75;5065859;28;20029;-57
2022/02/11 07:25:06;;;;;;;6.95;2.47;;;;;;;2.70;70.36;98750.59;5066052;28;20028;-57
2022/02/11 07:27:32;;;;;;;8.55;2.80;;;;;;;2.84;70.86;98753.09;5065840;28;20305;-56
2022/02/11 07:29:57;;;;;;;8.90;2.40;;;;;;;2.83;70.22;98756.50;5065335;28;20021;-57
2022/02/11 07:32:25;;;;;;;7.25;2.20;;;;;;;2.79;71.25;98750.53;5065816;28;20037;-57
2022/02/11 07:34:52;;;;;;;7.13;2.22;;;;;;;2.82;69.87;98745.41;5065678;28;20079;-58
2022/02/11 07:37:19;;;;;;;9.23;2.80;;;;;;;2.70;70.99;98748.03;5065674;28;20028;-56
2022/02/11 07:39:45;;;;;;;5.75;2.53;;;;;;;2.84;70.91;98747.97;5065869;28;20123;-56
2022/02/11 07:42:11;;;;;;;8.48;3.33;;;;;;;2.92;71.48;98741.06;5065692;28;20293;-57
2022/02/11 07:44:36;;;;;;;8.57;2.70;;;;;;;3.04;69.38;98750.41;5064784;28;20029;-57
2022/02/11 07:47:02;;;;;;;9.15;2.75;;;;;;;3.05;69.95;98745.28;5065256;28;20020;-58
2022/02/11 07:49:28;;;;;;;9.13;2.70;;;;;;;3.15;70.04;98746.06;5063965;28;20021;-58
2022/02/11 07:51:54;;;;;;;6.45;3.03;;;;;;;3.07;69.65;98755.50;5065051;28;20021;-57
2022/02/11 07:54:20;;;;;;;8.55;2.63;;;;;;;3.07;69.26;98737.59;5065074;28;20052;-57
2022/02/11 07:56:46;;;;;;;6.95;2.75;;;;;;;3.09;69.76;98741.84;5062294;28;20039;-57
2022/02/11 07:59:12;;;;;;;7.03;2.55;;;;;;;3.10;68.83;98730.72;5056091;28;20051;-57
2022/02/11 08:01:38;;;;;;;9.32;2.80;;;;;;;3.03;68.99;98723.13;5064925;28;20325;-56
2022/02/11 08:04:04;;;;;;;8.68;2.85;;;;;;;3.16;69.55;98734.97;5064643;28;20053;-56
2022/02/11 08:06:29;;;;;;;11.10;2.90;;;;;;;3.37;69.71;98739.06;5065094;28;20037;-59
2022/02/11 08:08:55;;;;;;;12.30;3.45;;;;;;;3.45;69.26;98731.34;5050666;28;20034;-60
2022/02/11 08:11:20;;;;;;;10.40;3.08;;;;;;;3.41;68.93;98740.75;5064272;28;20044;-60
2022/02/11 08:13:46;;;;;;;8.15;2.83;;;;;;;3.22;69.09;98736.63;5065134;28;20064;-60
2022/02/11 08:16:12;;;;;;;11.52;3.40;;;;;;;3.38;68.96;98737.38;5064560;28;20028;-60
2022/02/11 08:18:37;;;;;;;9.20;3.67;;;;;;;3.51;68.04;98738.97;5063720;28;20135;-60
2022/02/11 08:21:03;;;;;;;8.80;3.58;;;;;;;3.52;68.50;98747.50;5064250;28;20078;-59
2022/02/11 08:23:29;;;;;;;12.48;3.92;;;;;;;3.49;68.08;98740.69;5061958;28;20036;-59
2022/02/11 08:25:54;;;;;;;7.13;2.83;;;;;;;3.47;68.98;98739.84;5063417;28;20020;-60
2022/02/11 08:28:20;;;;;;;10.65;4.78;;;;;;;3.63;68.25;98741.44;5064778;28;20036;-61
2022/02/11 08:30:49;;;;;;;10.23;3.30;;;;;;;3.52;68.24;98733.00;5065048;28;20156;-61
2022/02/11 08:33:16;;;;;;;8.52;2.95;;;;;;;3.69;68.40;98737.09;5063570;28;20123;-61
2022/02/11 08:35:44;;;;;;;8.20;3.70;;;;;;;3.71;68.55;98741.34;5064254;28;20041;-61
2022/02/11 08:38:10;;;;;;;10.45;3.45;;;;;;;3.57;68.13;98740.63;5064212;28;20033;-61
2022/02/11 08:40:36;;;;;;;10.40;3.13;;;;;;;3.78;68.27;98743.00;5063294;28;20036;-61
2022/02/11 08:43:02;;;;;;;8.50;3.28;;;;;;;3.84;68.91;98739.53;5059418;28;20035;-61
2022/02/11 08:45:28;;;;;;;9.75;3.38;;;;;;;3.81;67.96;98742.13;5055765;28;20207;-61
2022/02/11 08:47:53;;;;;;;10.23;3.42;;;;;;;3.83;68.07;98742.94;5064394;28;20020;-61
2022/02/11 08:50:20;;;;;;;5.82;3.17;;;;;;;3.89;67.77;98745.47;5064287;28;20065;-60
2022/02/11 08:52:46;;;;;;;10.95;3.28;;;;;;;3.74;67.63;98740.47;5064223;28;20048;-60
2022/02/11 08:55:11;;;;;;;7.50;3.25;;;;;;;3.86;67.84;98736.94;5064305;28;20051;-60
2022/02/11 08:57:45;;;;;;;10.30;3.30;;;;;;;3.71;67.76;98733.69;5064336;28;20029;-60
2022/02/11 09:00:11;;;;;;;12.80;3.65;;;;;;;3.76;68.17;98731.94;5064028;28;20040;-60
2022/02/11 09:02:37;;;;;;;9.68;3.47;;;;;;;3.92;67.76;98724.94;5064051;28;20041;-60
2022/02/11 09:05:03;;;;;;;9.77;3.03;;;;;;;4.05;67.36;98732.50;5063408;28;20056;-60
2022/02/11 09:07:29;;;;;;;9.50;2.90;;;;;;;4.23;67.37;98741.69;5061196;28;20090;-61
2022/02/11 09:09:55;;;;;;;11.07;3.67;;;;;;;4.18;67.61;98734.06;5055972;28;20025;-61
2022/02/11 09:12:20;;;;;;;12.90;3.90;;;;;;;4.15;67.40;98731.53;5062293;28;20029;-60
2022/02/11 09:14:46;;;;;;;11.02;3.45;;;;;;;4.24;68.28;98730.59;5063572;28;20029;-61
2022/02/11 09:17:11;;;;;;;11.00;4.13;;;;;;;4.26;65.69;98732.25;5063693;28;20062;-61
2022/02/11 09:19:37;;;;;;;7.07;3.33;;;;;;;4.45;66.34;98734.63;5063941;28;20369;-60
2022/02/11 09:22:02;;;;;;;15.52;3.72;;;;;;;4.42;66.50;98737.22;5063833;28;20127;-60
2022/02/11 09:24:28;;;;;;;10.75;3.67;;;;;;;4.48;66.88;98721.75;5063911;28;20047;-60
2022/02/11 09:26:54;;;;;;;11.38;3.38;;;;;;;4.57;65.52;98721.63;5063721;28;20021;-61
2022/02/11 09:29:19;;;;;;;9.75;3.45;;;;;;;4.63;66.00;98725.81;5062436;28;20021;-61
2022/02/11 09:31:45;;;;;;;7.25;3.55;;;;;;;4.66;65.24;98729.22;5063687;28;20033;-62
2022/02/11 09:34:12;;;;;;;13.80;3.50;;;;;;;4.58;65.46;98725.88;5063490;28;20064;-61
2022/02/11 09:36:39;;;;;;;9.48;3.25;;;;;;;4.66;65.79;98721.53;5063507;28;20056;-61
2022/02/11 09:39:09;;;;;;;8.35;2.90;;;;;;;4.62;65.22;98740.38;5061933;28;20023;-61
2022/02/11 09:41:36;;;;;;;14.15;3.45;;;;;;;4.55;65.37;98731.06;5063150;28;20031;-61
2022/02/11 09:44:04;;;;;;;9.45;3.05;;;;;;;4.58;65.74;98745.56;5063190;28;20033;-61
2022/02/11 09:46:35;;;;;;;13.35;3.50;;;;;;;3.96;66.54;98715.50;5062310;28;20078;-60
2022/02/11 09:49:01;;;;;;;9.20;3.65;;;;;;;4.14;65.69;98719.59;5063675;28;20032;-61
2022/02/11 09:51:27;;;;;;;9.30;3.03;;;;;;;4.23;65.45;98746.81;5063315;28;20032;-61
2022/02/11 09:53:52;;;;;;;10.95;3.50;;;;;;;4.09;66.23;98727.31;5063241;28;20056;-60
2022/02/11 09:56:18;;;;;;;8.80;3.63;;;;;;;4.12;66.46;98724.72;5058486;28;20021;-61
2022/02/11 09:58:52;;;;;;;6.93;3.30;;;;;;;4.27;67.16;98739.06;5062705;28;20036;-60
2022/02/11 10:01:21;;;;;;;10.23;3.88;;;;;;;4.19;66.94;98730.63;5062702;28;20095;-62
2022/02/11 10:04:06;;;;;;;10.10;3.70;;;;;;;3.90;66.13;98674.59;5061462;28;20432;-62
2022/02/11 10:06:32;;;;;;;40.03;17.65;;;;;;;4.43;66.36;98734.63;5062573;28;20225;-61
2022/02/11 10:08:58;;;;;;;11.20;4.88;;;;;;;4.50;65.89;98730.25;5062646;28;20024;-62
2022/02/11 10:11:23;;;;;;;14.68;4.18;;;;;;;4.55;64.41;98730.22;5062962;28;20055;-61
2022/02/11 10:13:49;;;;;;;9.65;3.83;;;;;;;4.43;64.60;98732.06;5062824;28;20077;-61
2022/02/11 10:16:16;;;;;;;8.23;3.15;;;;;;;4.50;65.48;98725.13;5062573;28;20044;-61
2022/02/11 10:18:48;;;;;;;8.48;3.80;;;;;;;4.11;65.30;98697.41;5062305;28;20063;-62
2022/02/11 10:21:23;;;;;;;6.03;2.90;;;;;;;4.15;65.01;98699.06;5062022;28;20043;-61
2022/02/11 10:23:53;;;;;;;8.63;4.07;;;;;;;4.37;63.54;98733.84;5062809;28;20024;-61
2022/02/11 10:26:22;;;;;;;8.25;3.28;;;;;;;4.29;64.58;98746.75;5062501;28;20040;-62
2022/02/11 10:28:51;;;;;;;9.60;3.97;;;;;;;4.30;64.93;98748.44;5062702;28;20318;-62
2022/02/11 10:31:31;;;;;;;9.10;3.60;;;;;;;4.27;64.74;98717.72;5062683;28;20021;-61
2022/02/11 10:33:56;;;;;;;10.48;3.42;;;;;;;4.39;64.36;98739.78;5062740;28;20067;-61
2022/02/11 10:36:28;;;;;;;10.32;3.20;;;;;;;4.33;64.29;98738.16;5062602;28;20264;-61
2022/02/11 10:39:02;;;;;;;;;;;;;;;4.21;64.29;98731.47;5062851;28;20326;-61
2022/02/11 10:41:27;;;;;;;11.90;3.28;;;;;;;4.17;64.75;98732.34;5062513;28;20186;-60
2022/02/11 10:44:08;;;;;;;7.65;2.90;;;;;;;4.24;65.26;98735.72;5062459;28;20047;-61
2022/02/11 10:46:36;;;;;;;10.07;3.40;;;;;;;4.17;64.23;98736.63;5061252;28;20021;-62
2022/02/11 10:49:02;;;;;;;7.93;2.95;;;;;;;4.32;65.22;98734.75;5062217;28;20021;-61
2022/02/11 10:51:29;;;;;;;19.48;9.75;;;;;;;4.41;65.58;98728.66;5062456;28;20104;-61
2022/02/11 10:53:54;;;;;;;11.07;4.13;;;;;;;4.43;65.67;98733.75;5061767;28;20037;-60
2022/02/11 10:56:22;;;;;;;9.90;4.35;;;;;;;3.80;64.06;98681.50;5061911;28;20212;-62
2022/02/11 10:58:56;;;;;;;8.20;2.97;;;;;;;4.35;64.39;98743.25;5062229;28;20029;-62
2022/02/11 11:01:32;;;;;;;13.30;3.47;;;;;;;4.21;63.42;98740.88;5061846;28;20049;-61
2022/02/11 11:03:58;;;;;;;10.43;3.38;;;;;;;4.38;63.49;98738.13;5062293;28;20028;-61
2022/02/11 11:06:24;;;;;;;9.75;3.53;;;;;;;4.39;63.77;98740.66;5062327;28;20100;-61
2022/02/11 11:08:52;;;;;;;8.43;3.60;;;;;;;4.42;63.81;98747.47;5061741;28;20032;-60
2022/02/11 11:11:18;;;;;;;45.17;19.23;;;;;;;4.49;63.65;98742.25;5061982;28;20025;-61
2022/02/11 11:13:48;;;;;;;8.00;3.50;;;;;;;4.25;62.28;98742.53;5061957;28;20028;-60
2022/02/11 11:16:16;;;;;;;7.88;3.33;;;;;;;3.90;62.00;98683.09;5056001;28;20309;-61
2022/02/11 11:18:42;;;;;;;8.48;3.30;;;;;;;4.28;61.83;98753.59;5060490;28;20029;-61
2022/02/11 11:21:10;;;;;;;12.70;3.58;;;;;;;4.32;62.18;98754.41;5058853;28;20278;-61
2022/02/11 11:23:51;;;;;;;8.75;3.08;;;;;;;3.95;62.10;98681.34;5062299;28;20033;-61
2022/02/11 11:26:16;;;;;;;9.50;3.22;;;;;;;4.16;61.93;98735.78;5062146;28;20344;-60
2022/02/11 11:28:43;;;;;;;7.57;3.22;;;;;;;4.22;61.71;98739.97;5063333;28;20029;-60
2022/02/11 11:31:29;;;;;;;6.88;3.30;;;;;;;4.27;63.41;98740.78;5065863;28;20364;-60
2022/02/11 11:34:16;;;;;;;7.25;3.13;;;;;;;4.22;62.10;98740.84;5065862;28;20037;-60
2022/02/11 11:36:48;;;;;;;7.90;2.92;;;;;;;3.78;62.10;98678.97;5064742;28;20049;-61
2022/02/11 11:39:15;;;;;;;11.02;3.28;;;;;;;4.01;61.55;98741.09;5063905;28;20049;-61
2022/02/11 11:41:41;;;;;;;7.78;3.45;;;;;;;4.13;61.85;98741.81;5063126;28;20092;-60
2022/02/11 11:44:24;;;;;;;6.93;2.60;;;;;;;4.00;60.02;98734.25;5065368;28;20017;-60
2022/02/11 11:46:52;;;;;;;9.85;2.97;;;;;;;4.00;60.74;98732.53;5065662;28;20055;-61
2022/02/11 11:49:25;;;;;;;9.65;3.03;;;;;;;4.12;60.17;98746.94;5065400;28;20059;-62
2022/02/11 11:51:50;;;;;;;8.57;3.05;;;;;;;4.22;60.50;98745.97;5065537;28;20024;-61
2022/02/11 11:54:16;;;;;;;7.38;2.90;;;;;;;4.25;61.07;98740.81;5065446;28;20096;-61
2022/02/11 11:56:49;;;;;;;8.70;2.55;;;;;;;3.77;59.83;98681.56;5065299;28;20033;-61
2022/02/11 11:59:17;;;;;;;8.10;2.97;;;;;;;3.62;60.63;98675.72;5065206;28;20368;-60
2022/02/11 12:02:00;;;;;;;7.30;2.70;;;;;;;4.18;61.44;98744.31;5063696;28;20289;-61
2022/02/11 12:04:39;;;;;;;9.68;3.03;;;;;;;4.22;60.48;98740.84;5065535;28;20029;-61
2022/02/11 12:07:30;;;;;;;6.88;2.55;;;;;;;4.04;62.14;98718.00;5065345;28;20047;-61
2022/02/11 12:09:57;;;;;;;6.35;3.10;;;;;;;4.11;61.45;98743.53;5065001;28;20025;-59
2022/02/11 12:12:25;;;;;;;10.10;2.90;;;;;;;4.01;60.84;98741.91;5065153;28;20047;-60
2022/02/11 12:15:02;;;;;;;10.32;3.05;;;;;;;3.71;60.67;98686.75;5063869;28;20036;-60
2022/02/11 12:17:30;;;;;;;5.10;2.60;;;;;;;4.13;60.19;98754.63;5058726;28;20140;-61
2022/02/11 12:19:56;;;;;;;9.65;3.17;;;;;;;4.01;60.82;98746.22;5064785;28;20363;-59
2022/02/11 12:22:26;;;;;;;8.73;2.90;;;;;;;3.73;60.66;98690.97;5057928;28;20041;-60
2022/02/11 12:27:44;;;;;;;7.00;2.50;;;;;;;3.99;60.50;98741.09;5061080;28;20024;-60
2022/02/11 12:30:22;;;;;;;11.18;3.08;;;;;;;4.05;60.29;98753.84;5059768;28;20040;-62
2022/02/11 12:32:56;;;;;;;6.05;2.53;;;;;;;4.13;60.77;98770.00;5059978;28;20036;-60
2022/02/11 12:35:32;;;;;;;7.40;2.63;;;;;;;3.69;59.55;98704.69;5064755;28;20036;-59
2022/02/11 12:38:02;;;;;;;8.60;2.80;;;;;;;3.52;60.33;98698.84;5064606;28;20021;-61
2022/02/11 12:40:31;;;;;;;5.97;2.60;;;;;;;3.51;58.37;98695.47;5063867;28;20036;-61
2022/02/11 12:43:01;;;;;;;8.68;2.80;;;;;;;3.79;59.88;98756.63;5064575;28;20232;-60
2022/02/11 12:45:31;;;;;;;5.50;2.58;;;;;;;3.54;59.55;98710.78;5065084;28;20025;-60
2022/02/11 12:47:57;;;;;;;6.15;2.65;;;;;;;3.90;59.09;98756.56;5064583;28;20046;-60
2022/02/11 12:50:39;;;;;;;8.38;3.15;;;;;;;3.95;60.23;98758.19;5062589;28;20029;-61
2022/02/11 12:53:05;;;;;;;;;;;;;;;3.93;57.83;98765.06;5060493;28;20052;-60
2022/02/11 12:55:36;;;;;;;4.10;2.30;;;;;;;3.95;58.89;98768.44;5061718;28;19946;-60
2022/02/11 12:58:03;;;;;;;7.55;2.65;;;;;;;3.90;59.42;98767.63;5061047;28;20059;-60
2022/02/11 13:00:34;;;;;;;7.63;2.97;;;;;;;3.59;60.54;98713.28;5063883;28;20028;-60
2022/02/11 13:03:01;;;;;;;9.52;2.60;;;;;;;3.79;60.26;98762.63;5064287;28;20032;-60
2022/02/11 13:05:30;;;;;;;46.47;20.58;;;;;;;3.93;60.15;98761.63;5064109;28;20211;-61
2022/02/11 13:07:58;;;;;;;6.25;2.20;;;;;;;3.70;59.02;98762.69;5056737;28;20024;-60
2022/02/11 13:10:27;;;;;;;9.43;2.33;;;;;;;3.78;59.64;98765.19;5057533;28;20052;-58
2022/02/11 13:13:01;;;;;;;7.57;2.22;;;;;;;3.47;60.55;98698.91;5063778;28;20032;-59
2022/02/11 13:15:31;;;;;;;5.90;3.17;;;;;;;3.82;59.57;98772.00;5063997;28;20032;-56
2022/02/11 13:18:05;;;;;;;9.13;2.35;;;;;;;3.65;58.03;98771.28;5063570;28;20093;-57
2022/02/11 13:20:35;;;;;;;4.68;1.92;;;;;;;3.74;59.56;98795.09;5063061;28;20052;-58
2022/02/11 13:23:01;;;;;;;7.75;2.40;;;;;;;3.66;57.72;98775.53;5060854;28;20376;-59
2022/02/11 13:25:30;;;;;;;6.05;2.35;;;;;;;3.46;59.86;98743.25;5063236;28;20037;-58
2022/02/11 13:27:59;;;;;;;7.47;1.92;;;;;;;3.72;60.29;98776.34;5045956;28;20104;-59
2022/02/11 13:30:28;;;;;;;6.28;2.13;;;;;;;3.66;60.29;98780.66;5062575;28;20028;-61
2022/02/11 13:32:55;;;;;;;4.90;2.13;;;;;;;3.72;59.53;98784.03;5063258;28;20275;-61
2022/02/11 13:35:21;;;;;;;6.40;2.63;;;;;;;3.71;60.90;98784.88;5061849;28;20027;-61
2022/02/11 13:37:50;;;;;;;7.40;2.05;;;;;;;3.62;60.05;98793.50;5062670;28;20036;-61
2022/02/11 13:40:27;;;;;;;6.65;2.40;;;;;;;3.35;60.22;98770.66;5062839;28;20230;-60
2022/02/11 13:43:05;;;;;;;8.57;2.28;;;;;;;3.49;59.66;98785.91;5062976;28;20075;-62
2022/02/11 13:46:02;;;;;;;4.32;1.70;;;;;;;3.43;60.00;98797.03;5062786;28;20273;-59
2022/02/11 13:48:29;;;;;;;7.68;2.40;;;;;;;3.47;59.42;98788.47;5044641;28;20041;-62
2022/02/11 13:50:58;;;;;;;7.03;2.33;;;;;;;3.58;59.87;98801.22;5062630;28;20017;-62
2022/02/11 13:53:53;;;;;;;5.63;2.10;;;;;;;3.33;60.01;98750.19;5062649;28;20233;-62
2022/02/11 13:56:47;;;;;;;7.10;2.38;;;;;;;3.60;60.06;98796.91;5062601;28;20059;-61
2022/02/11 13:59:15;;;;;;;10.05;2.38;;;;;;;3.59;60.88;98798.63;5058208;28;20317;-61
2022/02/11 14:01:46;;;;;;;12.10;5.63;;;;;;;3.63;60.38;98799.44;5062233;28;20090;-62
2022/02/11 14:04:19;;;;;;;9.50;2.20;;;;;;;3.67;59.66;98807.97;5062390;28;20032;-60
2022/02/11 14:06:55;;;;;;;7.03;2.08;;;;;;;3.53;59.45;98788.44;5062293;28;20395;-61
2022/02/11 14:09:32;;;;;;;6.38;2.40;;;;;;;3.18;61.33;98745.19;5054344;28;20036;-61
2022/02/11 14:11:59;;;;;;;10.88;2.65;;;;;;;3.45;61.30;98808.97;5062458;28;20021;-63
2022/02/11 14:14:25;;;;;;;18.35;8.90;;;;;;;3.62;60.76;98805.44;5062143;28;20020;-62
2022/02/11 14:16:52;;;;;;;7.15;2.63;;;;;;;3.62;61.23;98810.56;5062367;28;20033;-61
2022/02/11 14:19:24;;;;;;;9.27;2.40;;;;;;;3.50;60.16;98808.09;5062358;28;20028;-62
2022/02/11 14:21:57;;;;;;;;;;;;;;;3.49;60.03;98803.81;5063025;28;20257;-61
2022/02/11 14:24:24;;;;;;;4.05;2.03;;;;;;;3.27;61.50;98765.59;5062424;28;20117;-62
2022/02/11 14:26:50;;;;;;;6.35;2.60;;;;;;;3.52;61.03;98820.03;5061077;28;20040;-62
2022/02/11 14:29:16;;;;;;;7.43;2.35;;;;;;;3.45;60.86;98819.22;5062353;28;20021;-61
2022/02/11 14:31:43;;;;;;;5.18;2.22;;;;;;;3.48;60.89;98814.91;5063450;28;20029;-61
2022/02/11 14:34:10;;;;;;;5.63;2.05;;;;;;;3.45;61.08;98821.78;5061987;28;20028;-62
2022/02/11 14:36:38;;;;;;;6.25;2.42;;;;;;;3.37;60.17;98815.00;5061601;28;20100;-61
2022/02/11 14:39:07;;;;;;;6.65;3.00;;;;;;;3.43;61.74;98820.06;5061672;28;20365;-62
2022/02/11 14:41:48;;;;;;;4.20;1.83;;;;;;;3.44;61.13;98829.47;5061858;28;20027;-60
2022/02/11 14:44:23;;;;;;;6.25;1.80;;;;;;;2.85;60.69;98764.97;5061092;28;20016;-61
2022/02/11 14:46:51;;;;;;;8.73;2.60;;;;;;;2.86;61.39;98756.47;5062221;28;20025;-61
2022/02/11 14:49:18;;;;;;;7.63;2.20;;;;;;;3.11;61.14;98793.81;5060746;28;20249;-60
2022/02/11 14:51:46;;;;;;;6.43;2.15;;;;;;;3.20;61.69;98818.50;5062151;28;20025;-60
2022/02/11 14:54:11;;;;;;;5.93;2.28;;;;;;;3.27;61.13;98827.00;5061226;28;20025;-62
2022/02/11 14:56:39;;;;;;;5.88;2.10;;;;;;;3.24;60.80;98829.59;5062227;28;20135;-61
2022/02/11 14:59:08;;;;;;;6.97;2.50;;;;;;;3.28;61.42;98838.94;5061912;28;20021;-60
2022/02/11 15:01:38;;;;;;;6.07;2.20;;;;;;;3.20;61.42;98826.19;5061511;28;20045;-62
2022/02/11 15:04:04;;;;;;;5.47;2.00;;;;;;;3.28;61.98;98842.34;5063737;28;20256;-62
2022/02/11 15:06:29;;;;;;;5.45;2.28;;;;;;;3.23;61.94;98844.06;5066010;28;20017;-61
2022/02/11 15:08:55;;;;;;;6.30;2.42;;;;;;;3.16;61.22;98851.78;5062825;28;20233;-60
2022/02/11 15:11:20;;;;;;;8.25;2.05;;;;;;;3.04;60.82;98814.34;5065468;28;20218;-60
2022/02/11 15:13:46;;;;;;;6.00;2.20;;;;;;;3.31;61.08;98850.84;5065645;28;20032;-61
2022/02/11 15:16:11;;;;;;;4.57;1.92;;;;;;;3.27;60.39;98850.88;5065371;28;20056;-60
2022/02/11 15:18:37;;;;;;;7.80;2.08;;;;;;;3.28;61.22;98851.75;5065722;28;20309;-62
2022/02/11 15:21:06;;;;;;;6.70;2.42;;;;;;;3.15;60.97;98858.63;5065419;28;20041;-60
2022/02/11 15:23:32;;;;;;;9.30;2.25;;;;;;;3.16;61.97;98860.31;5064330;28;20028;-61
2022/02/11 15:26:02;;;;;;;8.48;2.53;;;;;;;3.18;62.17;98866.28;5065313;28;20017;-62
2022/02/11 15:28:28;;;;;;;8.30;2.15;;;;;;;3.16;61.06;98867.16;5059859;28;20309;-60
2022/02/11 15:30:54;;;;;;;6.13;2.28;;;;;;;3.08;61.53;98865.47;5065433;28;20092;-60